sensor_id;sensor_type;location;lat;lon;timestamp;P1;durP1;ratioP1;P2;durP2;ratioP2
13872;SDS011;7006;51.494;11.964;2022-08-19T00:01:54;25.63;;;22.93;;
13872;SDS011;7006;51.494;11.964;2022-08-19T00:04:21;26.90;;;24.23;;
13872;SDS011;7006;51.494;11.964;2022-08-19T00:06:49;27.80;;;24.90;;
13872;SDS011;7006;51.494;11.964;2022-08-19T00:09:19;27.60;;;24.80;;
13872;SDS011;7006;51.494;11.964;2022-08-19T00:11:46;27.40;;;24.60;;
13872;SDS011;7006;51.494;11.964;2022-08-19T00:14:13;27.10;;;24.40;;
13872;SDS011;7006;51.494;11.964;2022-08-19T00:16:42;29.60;;;26.50;;
13872;SDS011;7006;51.494;11.964;2022-08-19T00:19:09;26.77;;;23.90;;
13872;SDS011;7006;51.494;11.964;2022-08-19T00:21:36;29.57;;;26.53;;
13872;SDS011;7006;51.494;11.964;2022-08-19T00:24:04;26.43;;;23.67;;
13872;SDS011;7006;51.494;11.964;2022-08-19T00:26:32;29.00;;;26.00;;
13872;SDS011;7006;51.494;11.964;2022-08-19T00:28:59;30.63;;;27.10;;
13872;SDS011;7006;51.494;11.964;2022-08-19T00:31:26;30.27;;;27.00;;
13872;SDS011;7006;51.494;11.964;2022-08-19T00:33:53;29.57;;;26.57;;
13872;SDS011;7006;51.494;11.964;2022-08-19T00:36:19;31.00;;;27.60;;
13872;SDS011;7006;51.494;11.964;2022-08-19T00:38:46;31.50;;;28.20;;
13872;SDS011;7006;51.494;11.964;2022-08-19T00:41:14;32.87;;;29.27;;
13872;SDS011;7006;51.494;11.964;2022-08-19T00:43:49;32.87;;;29.23;;
13872;SDS011;7006;51.494;11.964;2022-08-19T00:46:23;34.70;;;30.50;;
13872;SDS011;7006;51.494;11.964;2022-08-19T00:48:49;32.47;;;29.07;;
13872;SDS011;7006;51.494;11.964;2022-08-19T00:51:16;31.57;;;28.20;;
13872;SDS011;7006;51.494;11.964;2022-08-19T00:53:42;33.67;;;29.03;;
13872;SDS011;7006;51.494;11.964;2022-08-19T00:56:09;34.23;;;30.73;;
13872;SDS011;7006;51.494;11.964;2022-08-19T00:58:36;37.90;;;30.73;;
13872;SDS011;7006;51.494;11.964;2022-08-19T01:01:04;34.43;;;30.87;;
13872;SDS011;7006;51.494;11.964;2022-08-19T01:03:32;34.03;;;30.40;;
13872;SDS011;7006;51.494;11.964;2022-08-19T01:05:59;33.43;;;29.97;;
13872;SDS011;7006;51.494;11.964;2022-08-19T01:08:26;36.80;;;31.63;;
13872;SDS011;7006;51.494;11.964;2022-08-19T01:10:54;34.70;;;30.00;;
13872;SDS011;7006;51.494;11.964;2022-08-19T01:13:23;36.00;;;31.30;;
13872;SDS011;7006;51.494;11.964;2022-08-19T01:15:57;33.33;;;29.30;;
13872;SDS011;7006;51.494;11.964;2022-08-19T01:18:27;32.40;;;28.90;;
13872;SDS011;7006;51.494;11.964;2022-08-19T01:20:54;34.57;;;30.80;;
13872;SDS011;7006;51.494;11.964;2022-08-19T01:23:24;33.10;;;29.50;;
13872;SDS011;7006;51.494;11.964;2022-08-19T01:26:07;33.93;;;30.23;;
13872;SDS011;7006;51.494;11.964;2022-08-19T01:28:35;31.37;;;28.07;;
13872;SDS011;7006;51.494;11.964;2022-08-19T01:31:02;35.87;;;29.57;;
13872;SDS011;7006;51.494;11.964;2022-08-19T01:33:29;33.10;;;29.70;;
13872;SDS011;7006;51.494;11.964;2022-08-19T01:36:02;34.50;;;30.70;;
13872;SDS011;7006;51.494;11.964;2022-08-19T01:38:34;33.43;;;29.97;;
13872;SDS011;7006;51.494;11.964;2022-08-19T01:41:02;31.93;;;28.60;;
13872;SDS011;7006;51.494;11.964;2022-08-19T01:43:29;32.47;;;29.17;;
13872;SDS011;7006;51.494;11.964;2022-08-19T01:45:55;34.30;;;30.67;;
13872;SDS011;7006;51.494;11.964;2022-08-19T01:48:22;33.43;;;30.03;;
13872;SDS011;7006;51.494;11.964;2022-08-19T01:50:48;32.20;;;28.80;;
13872;SDS011;7006;51.494;11.964;2022-08-19T01:53:15;34.80;;;29.53;;
13872;SDS011;7006;51.494;11.964;2022-08-19T01:55:43;33.53;;;30.03;;
13872;SDS011;7006;51.494;11.964;2022-08-19T01:58:12;32.97;;;29.17;;
13872;SDS011;7006;51.494;11.964;2022-08-19T02:00:41;33.63;;;30.10;;
13872;SDS011;7006;51.494;11.964;2022-08-19T02:03:08;34.87;;;30.50;;
13872;SDS011;7006;51.494;11.964;2022-08-19T02:05:36;36.17;;;32.13;;
13872;SDS011;7006;51.494;11.964;2022-08-19T02:08:03;35.57;;;31.53;;
13872;SDS011;7006;51.494;11.964;2022-08-19T02:10:30;39.23;;;34.93;;
13872;SDS011;7006;51.494;11.964;2022-08-19T02:12:58;37.57;;;32.10;;
13872;SDS011;7006;51.494;11.964;2022-08-19T02:15:24;38.93;;;34.67;;
13872;SDS011;7006;51.494;11.964;2022-08-19T02:17:51;37.93;;;33.87;;
13872;SDS011;7006;51.494;11.964;2022-08-19T02:20:18;39.07;;;34.00;;
13872;SDS011;7006;51.494;11.964;2022-08-19T02:22:44;41.17;;;35.50;;
13872;SDS011;7006;51.494;11.964;2022-08-19T02:25:11;40.63;;;35.83;;
13872;SDS011;7006;51.494;11.964;2022-08-19T02:27:39;40.43;;;35.70;;
13872;SDS011;7006;51.494;11.964;2022-08-19T02:30:09;42.63;;;37.70;;
13872;SDS011;7006;51.494;11.964;2022-08-19T02:32:38;40.67;;;36.30;;
13872;SDS011;7006;51.494;11.964;2022-08-19T02:35:05;44.73;;;36.23;;
13872;SDS011;7006;51.494;11.964;2022-08-19T02:37:32;38.97;;;34.60;;
13872;SDS011;7006;51.494;11.964;2022-08-19T02:40:28;40.20;;;34.97;;
13872;SDS011;7006;51.494;11.964;2022-08-19T02:42:55;40.87;;;35.97;;
13872;SDS011;7006;51.494;11.964;2022-08-19T02:45:23;42.97;;;37.10;;
13872;SDS011;7006;51.494;11.964;2022-08-19T02:47:50;42.27;;;36.57;;
13872;SDS011;7006;51.494;11.964;2022-08-19T02:50:16;42.57;;;37.97;;
13872;SDS011;7006;51.494;11.964;2022-08-19T02:52:43;44.10;;;37.17;;
13872;SDS011;7006;51.494;11.964;2022-08-19T02:55:10;46.40;;;39.17;;
13872;SDS011;7006;51.494;11.964;2022-08-19T02:57:36;47.40;;;38.67;;
13872;SDS011;7006;51.494;11.964;2022-08-19T03:00:04;42.43;;;37.83;;
13872;SDS011;7006;51.494;11.964;2022-08-19T03:02:32;42.90;;;37.10;;
13872;SDS011;7006;51.494;11.964;2022-08-19T03:04:59;44.13;;;39.30;;
13872;SDS011;7006;51.494;11.964;2022-08-19T03:07:26;42.70;;;38.10;;
13872;SDS011;7006;51.494;11.964;2022-08-19T03:09:53;39.60;;;35.33;;
13872;SDS011;7006;51.494;11.964;2022-08-19T03:12:19;44.10;;;39.10;;
13872;SDS011;7006;51.494;11.964;2022-08-19T03:14:46;42.53;;;37.93;;
13872;SDS011;7006;51.494;11.964;2022-08-19T03:17:12;45.57;;;39.80;;
13872;SDS011;7006;51.494;11.964;2022-08-19T03:19:40;42.73;;;38.03;;
13872;SDS011;7006;51.494;11.964;2022-08-19T03:22:08;46.87;;;40.73;;
13872;SDS011;7006;51.494;11.964;2022-08-19T03:24:34;48.50;;;43.30;;
13872;SDS011;7006;51.494;11.964;2022-08-19T03:27:01;45.33;;;40.33;;
13872;SDS011;7006;51.494;11.964;2022-08-19T03:29:30;45.73;;;39.93;;
13872;SDS011;7006;51.494;11.964;2022-08-19T03:31:57;46.17;;;41.10;;
13872;SDS011;7006;51.494;11.964;2022-08-19T03:34:26;48.97;;;40.90;;
13872;SDS011;7006;51.494;11.964;2022-08-19T03:36:56;52.30;;;42.03;;
13872;SDS011;7006;51.494;11.964;2022-08-19T03:39:23;47.77;;;41.87;;
13872;SDS011;7006;51.494;11.964;2022-08-19T03:41:53;45.77;;;40.97;;
13872;SDS011;7006;51.494;11.964;2022-08-19T03:44:21;48.43;;;42.47;;
13872;SDS011;7006;51.494;11.964;2022-08-19T03:46:50;48.23;;;42.97;;
13872;SDS011;7006;51.494;11.964;2022-08-19T03:49:19;46.57;;;41.40;;
13872;SDS011;7006;51.494;11.964;2022-08-19T03:51:46;50.13;;;44.70;;
13872;SDS011;7006;51.494;11.964;2022-08-19T03:54:16;43.23;;;38.53;;
13872;SDS011;7006;51.494;11.964;2022-08-19T03:56:45;47.27;;;42.20;;
13872;SDS011;7006;51.494;11.964;2022-08-19T03:59:15;49.10;;;42.03;;
13872;SDS011;7006;51.494;11.964;2022-08-19T04:01:43;45.23;;;40.50;;
13872;SDS011;7006;51.494;11.964;2022-08-19T04:04:11;47.83;;;40.90;;
13872;SDS011;7006;51.494;11.964;2022-08-19T04:06:38;48.73;;;43.53;;
13872;SDS011;7006;51.494;11.964;2022-08-19T04:09:06;48.07;;;42.90;;
13872;SDS011;7006;51.494;11.964;2022-08-19T04:11:36;46.20;;;41.20;;
13872;SDS011;7006;51.494;11.964;2022-08-19T04:14:06;46.37;;;41.40;;
13872;SDS011;7006;51.494;11.964;2022-08-19T04:16:33;48.33;;;42.43;;
13872;SDS011;7006;51.494;11.964;2022-08-19T04:19:00;48.83;;;41.90;;
13872;SDS011;7006;51.494;11.964;2022-08-19T04:21:28;49.47;;;44.07;;
13872;SDS011;7006;51.494;11.964;2022-08-19T04:23:55;48.80;;;43.43;;
13872;SDS011;7006;51.494;11.964;2022-08-19T04:26:23;48.83;;;42.00;;
13872;SDS011;7006;51.494;11.964;2022-08-19T04:28:52;48.17;;;42.90;;
13872;SDS011;7006;51.494;11.964;2022-08-19T04:31:19;50.37;;;43.70;;
13872;SDS011;7006;51.494;11.964;2022-08-19T04:33:47;52.77;;;43.83;;
13872;SDS011;7006;51.494;11.964;2022-08-19T04:36:17;50.57;;;45.07;;
13872;SDS011;7006;51.494;11.964;2022-08-19T04:38:45;47.97;;;40.50;;
13872;SDS011;7006;51.494;11.964;2022-08-19T04:41:12;48.80;;;41.83;;
13872;SDS011;7006;51.494;11.964;2022-08-19T04:43:57;45.70;;;40.70;;
13872;SDS011;7006;51.494;11.964;2022-08-19T04:46:24;45.07;;;39.93;;
13872;SDS011;7006;51.494;11.964;2022-08-19T04:48:50;45.27;;;39.80;;
13872;SDS011;7006;51.494;11.964;2022-08-19T04:51:17;44.40;;;38.23;;
13872;SDS011;7006;51.494;11.964;2022-08-19T04:53:45;41.63;;;37.23;;
13872;SDS011;7006;51.494;11.964;2022-08-19T04:56:13;41.97;;;36.67;;
13872;SDS011;7006;51.494;11.964;2022-08-19T04:58:42;41.10;;;36.70;;
13872;SDS011;7006;51.494;11.964;2022-08-19T05:01:12;43.20;;;37.70;;
13872;SDS011;7006;51.494;11.964;2022-08-19T05:03:39;42.37;;;37.87;;
13872;SDS011;7006;51.494;11.964;2022-08-19T05:06:07;42.17;;;37.57;;
13872;SDS011;7006;51.494;11.964;2022-08-19T05:08:36;43.92;;;39.53;;
13872;SDS011;7006;51.494;11.964;2022-08-19T05:11:07;41.47;;;37.07;;
13872;SDS011;7006;51.494;11.964;2022-08-19T05:13:36;41.10;;;34.97;;
13872;SDS011;7006;51.494;11.964;2022-08-19T05:16:02;40.50;;;36.40;;
13872;SDS011;7006;51.494;11.964;2022-08-19T05:18:31;38.70;;;34.63;;
13872;SDS011;7006;51.494;11.964;2022-08-19T05:21:16;40.53;;;33.67;;
13872;SDS011;7006;51.494;11.964;2022-08-19T05:24:01;42.60;;;34.93;;
13872;SDS011;7006;51.494;11.964;2022-08-19T05:26:28;40.50;;;35.30;;
13872;SDS011;7006;51.494;11.964;2022-08-19T05:28:54;44.07;;;35.80;;
13872;SDS011;7006;51.494;11.964;2022-08-19T05:31:21;42.07;;;37.07;;
13872;SDS011;7006;51.494;11.964;2022-08-19T05:33:49;41.00;;;35.63;;
13872;SDS011;7006;51.494;11.964;2022-08-19T05:36:16;37.77;;;33.80;;
13872;SDS011;7006;51.494;11.964;2022-08-19T05:38:44;41.10;;;35.30;;
13872;SDS011;7006;51.494;11.964;2022-08-19T05:41:12;37.37;;;33.37;;
13872;SDS011;7006;51.494;11.964;2022-08-19T05:43:40;44.73;;;34.80;;
13872;SDS011;7006;51.494;11.964;2022-08-19T05:46:07;37.00;;;32.93;;
13872;SDS011;7006;51.494;11.964;2022-08-19T05:48:34;38.10;;;33.90;;
13872;SDS011;7006;51.494;11.964;2022-08-19T05:51:04;35.60;;;30.70;;
13872;SDS011;7006;51.494;11.964;2022-08-19T05:53:33;35.20;;;30.30;;
13872;SDS011;7006;51.494;11.964;2022-08-19T05:56:03;35.50;;;29.60;;
13872;SDS011;7006;51.494;11.964;2022-08-19T05:58:29;33.07;;;29.50;;
13872;SDS011;7006;51.494;11.964;2022-08-19T06:00:57;32.70;;;28.37;;
13872;SDS011;7006;51.494;11.964;2022-08-19T06:03:29;30.60;;;27.40;;
13872;SDS011;7006;51.494;11.964;2022-08-19T06:05:55;27.93;;;24.97;;
13872;SDS011;7006;51.494;11.964;2022-08-19T06:08:25;30.43;;;25.93;;
13872;SDS011;7006;51.494;11.964;2022-08-19T06:10:52;29.63;;;26.53;;
13872;SDS011;7006;51.494;11.964;2022-08-19T06:13:18;30.70;;;25.47;;
13872;SDS011;7006;51.494;11.964;2022-08-19T06:15:45;29.00;;;25.90;;
13872;SDS011;7006;51.494;11.964;2022-08-19T06:18:12;28.53;;;24.40;;
13872;SDS011;7006;51.494;11.964;2022-08-19T06:20:39;25.03;;;22.50;;
13872;SDS011;7006;51.494;11.964;2022-08-19T06:23:06;25.03;;;22.43;;
13872;SDS011;7006;51.494;11.964;2022-08-19T06:25:35;25.53;;;21.87;;
13872;SDS011;7006;51.494;11.964;2022-08-19T06:28:02;23.23;;;21.03;;
13872;SDS011;7006;51.494;11.964;2022-08-19T06:30:29;24.47;;;22.00;;
13872;SDS011;7006;51.494;11.964;2022-08-19T06:32:55;26.60;;;22.80;;
13872;SDS011;7006;51.494;11.964;2022-08-19T06:35:22;24.30;;;21.53;;
13872;SDS011;7006;51.494;11.964;2022-08-19T06:37:48;26.20;;;21.60;;
13872;SDS011;7006;51.494;11.964;2022-08-19T06:40:15;26.77;;;20.37;;
13872;SDS011;7006;51.494;11.964;2022-08-19T06:42:43;23.37;;;20.87;;
13872;SDS011;7006;51.494;11.964;2022-08-19T06:45:09;24.67;;;20.07;;
13872;SDS011;7006;51.494;11.964;2022-08-19T06:47:36;25.10;;;20.47;;
13872;SDS011;7006;51.494;11.964;2022-08-19T06:50:03;24.70;;;19.20;;
13872;SDS011;7006;51.494;11.964;2022-08-19T06:52:30;22.30;;;18.57;;
13872;SDS011;7006;51.494;11.964;2022-08-19T06:54:57;23.33;;;19.57;;
13872;SDS011;7006;51.494;11.964;2022-08-19T06:57:24;23.00;;;20.40;;
13872;SDS011;7006;51.494;11.964;2022-08-19T06:59:52;22.30;;;19.90;;
13872;SDS011;7006;51.494;11.964;2022-08-19T07:02:19;21.87;;;19.13;;
13872;SDS011;7006;51.494;11.964;2022-08-19T07:04:46;21.07;;;18.97;;
13872;SDS011;7006;51.494;11.964;2022-08-19T07:07:13;23.30;;;21.00;;
13872;SDS011;7006;51.494;11.964;2022-08-19T07:09:41;26.20;;;19.57;;
13872;SDS011;7006;51.494;11.964;2022-08-19T07:12:10;23.70;;;21.23;;
13872;SDS011;7006;51.494;11.964;2022-08-19T07:14:39;23.37;;;20.87;;
13872;SDS011;7006;51.494;11.964;2022-08-19T07:17:07;23.17;;;19.57;;
13872;SDS011;7006;51.494;11.964;2022-08-19T07:19:35;22.10;;;19.17;;
13872;SDS011;7006;51.494;11.964;2022-08-19T07:22:02;21.00;;;18.70;;
13872;SDS011;7006;51.494;11.964;2022-08-19T07:24:30;22.83;;;20.17;;
13872;SDS011;7006;51.494;11.964;2022-08-19T07:26:57;24.90;;;20.23;;
13872;SDS011;7006;51.494;11.964;2022-08-19T07:29:27;23.47;;;20.97;;
13872;SDS011;7006;51.494;11.964;2022-08-19T07:31:55;22.90;;;19.30;;
13872;SDS011;7006;51.494;11.964;2022-08-19T07:34:25;24.40;;;21.20;;
13872;SDS011;7006;51.494;11.964;2022-08-19T07:36:52;22.10;;;19.77;;
13872;SDS011;7006;51.494;11.964;2022-08-19T07:39:20;22.90;;;20.70;;
13872;SDS011;7006;51.494;11.964;2022-08-19T07:41:48;22.77;;;19.97;;
13872;SDS011;7006;51.494;11.964;2022-08-19T07:44:16;21.63;;;19.37;;
13872;SDS011;7006;51.494;11.964;2022-08-19T07:46:44;21.83;;;19.60;;
13872;SDS011;7006;51.494;11.964;2022-08-19T07:49:12;24.80;;;19.50;;
13872;SDS011;7006;51.494;11.964;2022-08-19T07:51:44;20.83;;;18.63;;
13872;SDS011;7006;51.494;11.964;2022-08-19T07:54:11;21.40;;;19.03;;
13872;SDS011;7006;51.494;11.964;2022-08-19T07:56:38;21.57;;;19.47;;
13872;SDS011;7006;51.494;11.964;2022-08-19T07:59:06;21.90;;;19.33;;
13872;SDS011;7006;51.494;11.964;2022-08-19T08:01:32;20.40;;;18.10;;
13872;SDS011;7006;51.494;11.964;2022-08-19T08:03:59;22.10;;;19.70;;
13872;SDS011;7006;51.494;11.964;2022-08-19T08:06:45;21.57;;;19.47;;
13872;SDS011;7006;51.494;11.964;2022-08-19T08:09:29;22.20;;;19.80;;
13872;SDS011;7006;51.494;11.964;2022-08-19T08:11:59;21.80;;;19.47;;
13872;SDS011;7006;51.494;11.964;2022-08-19T08:14:28;20.97;;;18.73;;
13872;SDS011;7006;51.494;11.964;2022-08-19T08:16:57;23.40;;;18.67;;
13872;SDS011;7006;51.494;11.964;2022-08-19T08:19:24;20.40;;;18.37;;
13872;SDS011;7006;51.494;11.964;2022-08-19T08:21:56;20.93;;;17.93;;
13872;SDS011;7006;51.494;11.964;2022-08-19T08:24:24;22.00;;;17.93;;
13872;SDS011;7006;51.494;11.964;2022-08-19T08:26:51;22.00;;;19.30;;
13872;SDS011;7006;51.494;11.964;2022-08-19T08:29:18;21.07;;;17.80;;
13872;SDS011;7006;51.494;11.964;2022-08-19T08:31:45;22.57;;;18.87;;
13872;SDS011;7006;51.494;11.964;2022-08-19T08:34:13;19.57;;;17.47;;
13872;SDS011;7006;51.494;11.964;2022-08-19T08:36:40;22.77;;;18.90;;
13872;SDS011;7006;51.494;11.964;2022-08-19T08:39:11;22.10;;;18.30;;
13872;SDS011;7006;51.494;11.964;2022-08-19T08:41:40;21.30;;;18.70;;
13872;SDS011;7006;51.494;11.964;2022-08-19T08:44:13;22.77;;;18.73;;
13872;SDS011;7006;51.494;11.964;2022-08-19T08:46:42;20.43;;;17.23;;
13872;SDS011;7006;51.494;11.964;2022-08-19T08:49:15;19.53;;;16.80;;
13872;SDS011;7006;51.494;11.964;2022-08-19T08:51:48;18.27;;;16.30;;
13872;SDS011;7006;51.494;11.964;2022-08-19T08:54:20;19.07;;;16.57;;
13872;SDS011;7006;51.494;11.964;2022-08-19T08:56:50;20.27;;;17.20;;
13872;SDS011;7006;51.494;11.964;2022-08-19T08:59:19;20.03;;;16.17;;
13872;SDS011;7006;51.494;11.964;2022-08-19T09:01:48;17.50;;;15.50;;
13872;SDS011;7006;51.494;11.964;2022-08-19T09:04:14;16.80;;;15.10;;
13872;SDS011;7006;51.494;11.964;2022-08-19T09:06:44;16.90;;;15.10;;
13872;SDS011;7006;51.494;11.964;2022-08-19T09:09:17;19.07;;;16.50;;
13872;SDS011;7006;51.494;11.964;2022-08-19T09:11:48;18.37;;;16.50;;
13872;SDS011;7006;51.494;11.964;2022-08-19T09:14:31;17.60;;;15.67;;
13872;SDS011;7006;51.494;11.964;2022-08-19T09:17:01;17.23;;;15.43;;
13872;SDS011;7006;51.494;11.964;2022-08-19T09:19:28;17.70;;;15.87;;
13872;SDS011;7006;51.494;11.964;2022-08-19T09:21:56;17.10;;;15.27;;
13872;SDS011;7006;51.494;11.964;2022-08-19T09:24:26;16.47;;;14.87;;
13872;SDS011;7006;51.494;11.964;2022-08-19T09:26:53;18.07;;;14.97;;
13872;SDS011;7006;51.494;11.964;2022-08-19T09:29:20;16.60;;;14.70;;
13872;SDS011;7006;51.494;11.964;2022-08-19T09:31:46;15.70;;;14.10;;
13872;SDS011;7006;51.494;11.964;2022-08-19T09:34:13;17.03;;;14.90;;
13872;SDS011;7006;51.494;11.964;2022-08-19T09:36:40;16.77;;;15.10;;
13872;SDS011;7006;51.494;11.964;2022-08-19T09:39:06;18.50;;;16.43;;
13872;SDS011;7006;51.494;11.964;2022-08-19T09:41:34;15.87;;;14.27;;
13872;SDS011;7006;51.494;11.964;2022-08-19T09:44:01;17.63;;;15.33;;
13872;SDS011;7006;51.494;11.964;2022-08-19T09:46:28;17.03;;;15.23;;
13872;SDS011;7006;51.494;11.964;2022-08-19T09:48:59;16.10;;;14.50;;
13872;SDS011;7006;51.494;11.964;2022-08-19T09:51:26;16.47;;;14.60;;
13872;SDS011;7006;51.494;11.964;2022-08-19T09:53:54;15.73;;;13.57;;
13872;SDS011;7006;51.494;11.964;2022-08-19T09:56:25;19.00;;;14.87;;
13872;SDS011;7006;51.494;11.964;2022-08-19T09:58:53;19.00;;;14.87;;
13872;SDS011;7006;51.494;11.964;2022-08-19T10:01:20;15.30;;;13.50;;
13872;SDS011;7006;51.494;11.964;2022-08-19T10:03:48;15.27;;;13.60;;
13872;SDS011;7006;51.494;11.964;2022-08-19T10:06:16;16.17;;;13.30;;
13872;SDS011;7006;51.494;11.964;2022-08-19T10:08:43;14.30;;;12.80;;
13872;SDS011;7006;51.494;11.964;2022-08-19T10:11:10;14.50;;;12.40;;
13872;SDS011;7006;51.494;11.964;2022-08-19T10:13:39;15.17;;;13.07;;
13872;SDS011;7006;51.494;11.964;2022-08-19T10:16:11;14.10;;;12.60;;
13872;SDS011;7006;51.494;11.964;2022-08-19T10:18:39;16.77;;;12.50;;
13872;SDS011;7006;51.494;11.964;2022-08-19T10:21:08;15.67;;;13.53;;
13872;SDS011;7006;51.494;11.964;2022-08-19T10:23:36;15.20;;;13.60;;
13872;SDS011;7006;51.494;11.964;2022-08-19T10:26:04;15.50;;;13.47;;
13872;SDS011;7006;51.494;11.964;2022-08-19T10:28:31;15.77;;;14.10;;
13872;SDS011;7006;51.494;11.964;2022-08-19T10:31:02;14.60;;;13.10;;
13872;SDS011;7006;51.494;11.964;2022-08-19T10:33:32;15.50;;;14.00;;
13872;SDS011;7006;51.494;11.964;2022-08-19T10:36:00;18.87;;;14.13;;
13872;SDS011;7006;51.494;11.964;2022-08-19T10:38:26;15.27;;;13.67;;
13872;SDS011;7006;51.494;11.964;2022-08-19T10:40:54;17.87;;;14.80;;
13872;SDS011;7006;51.494;11.964;2022-08-19T10:43:21;15.53;;;13.93;;
13872;SDS011;7006;51.494;11.964;2022-08-19T10:45:48;15.00;;;13.50;;
13872;SDS011;7006;51.494;11.964;2022-08-19T10:48:18;13.87;;;12.43;;
13872;SDS011;7006;51.494;11.964;2022-08-19T10:50:46;14.90;;;13.40;;
13872;SDS011;7006;51.494;11.964;2022-08-19T10:53:30;15.57;;;13.03;;
13872;SDS011;7006;51.494;11.964;2022-08-19T10:55:56;14.20;;;12.80;;
13872;SDS011;7006;51.494;11.964;2022-08-19T10:58:40;13.60;;;12.30;;
13872;SDS011;7006;51.494;11.964;2022-08-19T11:01:07;15.37;;;12.00;;
13872;SDS011;7006;51.494;11.964;2022-08-19T11:03:33;14.10;;;12.60;;
13872;SDS011;7006;51.494;11.964;2022-08-19T11:06:02;15.10;;;12.73;;
13872;SDS011;7006;51.494;11.964;2022-08-19T11:08:29;14.10;;;12.70;;
13872;SDS011;7006;51.494;11.964;2022-08-19T11:10:58;15.77;;;13.50;;
13872;SDS011;7006;51.494;11.964;2022-08-19T11:13:26;14.90;;;13.40;;
13872;SDS011;7006;51.494;11.964;2022-08-19T11:15:57;14.97;;;13.47;;
13872;SDS011;7006;51.494;11.964;2022-08-19T11:18:24;16.10;;;13.33;;
13872;SDS011;7006;51.494;11.964;2022-08-19T11:20:51;14.73;;;13.20;;
13872;SDS011;7006;51.494;11.964;2022-08-19T11:23:19;17.93;;;13.67;;
13872;SDS011;7006;51.494;11.964;2022-08-19T11:25:45;17.87;;;14.30;;
13872;SDS011;7006;51.494;11.964;2022-08-19T11:28:12;14.17;;;12.77;;
13872;SDS011;7006;51.494;11.964;2022-08-19T11:30:38;15.27;;;13.77;;
13872;SDS011;7006;51.494;11.964;2022-08-19T11:33:05;14.50;;;13.00;;
13872;SDS011;7006;51.494;11.964;2022-08-19T11:35:31;13.90;;;12.50;;
13872;SDS011;7006;51.494;11.964;2022-08-19T11:37:58;14.53;;;13.03;;
13872;SDS011;7006;51.494;11.964;2022-08-19T11:40:27;16.93;;;13.70;;
13872;SDS011;7006;51.494;11.964;2022-08-19T11:42:54;17.13;;;13.63;;
13872;SDS011;7006;51.494;11.964;2022-08-19T11:45:21;14.23;;;12.83;;
13872;SDS011;7006;51.494;11.964;2022-08-19T11:47:47;15.20;;;12.37;;
13872;SDS011;7006;51.494;11.964;2022-08-19T11:50:14;16.27;;;12.80;;
13872;SDS011;7006;51.494;11.964;2022-08-19T11:52:41;17.33;;;13.40;;
13872;SDS011;7006;51.494;11.964;2022-08-19T11:55:09;14.67;;;13.17;;
13872;SDS011;7006;51.494;11.964;2022-08-19T11:57:37;13.47;;;12.10;;
13872;SDS011;7006;51.494;11.964;2022-08-19T12:00:06;14.43;;;12.93;;
13872;SDS011;7006;51.494;11.964;2022-08-19T12:02:34;14.30;;;12.90;;
13872;SDS011;7006;51.494;11.964;2022-08-19T12:05:00;14.43;;;13.03;;
13872;SDS011;7006;51.494;11.964;2022-08-19T12:07:28;13.83;;;12.43;;
13872;SDS011;7006;51.494;11.964;2022-08-19T12:09:58;15.13;;;13.13;;
13872;SDS011;7006;51.494;11.964;2022-08-19T12:12:24;13.77;;;12.27;;
13872;SDS011;7006;51.494;11.964;2022-08-19T12:14:52;15.00;;;13.40;;
13872;SDS011;7006;51.494;11.964;2022-08-19T12:17:21;14.43;;;12.57;;
13872;SDS011;7006;51.494;11.964;2022-08-19T12:19:48;14.40;;;12.90;;
13872;SDS011;7006;51.494;11.964;2022-08-19T12:22:15;15.97;;;13.90;;
13872;SDS011;7006;51.494;11.964;2022-08-19T12:24:41;14.30;;;12.90;;
13872;SDS011;7006;51.494;11.964;2022-08-19T12:27:08;18.50;;;15.30;;
13872;SDS011;7006;51.494;11.964;2022-08-19T12:29:35;15.13;;;13.53;;
13872;SDS011;7006;51.494;11.964;2022-08-19T12:32:03;14.93;;;13.43;;
13872;SDS011;7006;51.494;11.964;2022-08-19T12:34:30;15.67;;;14.10;;
13872;SDS011;7006;51.494;11.964;2022-08-19T12:36:58;12.80;;;11.40;;
13872;SDS011;7006;51.494;11.964;2022-08-19T12:39:25;12.17;;;10.90;;
13872;SDS011;7006;51.494;11.964;2022-08-19T12:41:52;13.53;;;11.97;;
13872;SDS011;7006;51.494;11.964;2022-08-19T12:44:18;13.60;;;11.90;;
13872;SDS011;7006;51.494;11.964;2022-08-19T12:46:46;13.80;;;12.37;;
13872;SDS011;7006;51.494;11.964;2022-08-19T12:49:15;13.40;;;12.20;;
13872;SDS011;7006;51.494;11.964;2022-08-19T12:51:42;13.67;;;12.27;;
13872;SDS011;7006;51.494;11.964;2022-08-19T12:54:08;13.60;;;11.80;;
13872;SDS011;7006;51.494;11.964;2022-08-19T12:56:35;12.20;;;10.90;;
13872;SDS011;7006;51.494;11.964;2022-08-19T12:59:02;15.57;;;11.50;;
13872;SDS011;7006;51.494;11.964;2022-08-19T13:01:29;11.77;;;10.60;;
13872;SDS011;7006;51.494;11.964;2022-08-19T13:03:57;11.70;;;10.60;;
13872;SDS011;7006;51.494;11.964;2022-08-19T13:06:25;11.80;;;10.60;;
13872;SDS011;7006;51.494;11.964;2022-08-19T13:08:52;11.53;;;10.33;;
13872;SDS011;7006;51.494;11.964;2022-08-19T13:11:20;12.20;;;10.60;;
13872;SDS011;7006;51.494;11.964;2022-08-19T13:13:49;11.10;;;10.10;;
13872;SDS011;7006;51.494;11.964;2022-08-19T13:16:17;13.90;;;12.50;;
13872;SDS011;7006;51.494;11.964;2022-08-19T13:18:46;12.93;;;11.70;;
13872;SDS011;7006;51.494;11.964;2022-08-19T13:21:13;15.97;;;14.10;;
13872;SDS011;7006;51.494;11.964;2022-08-19T13:23:41;16.23;;;13.17;;
13872;SDS011;7006;51.494;11.964;2022-08-19T13:26:08;20.03;;;17.43;;
13872;SDS011;7006;51.494;11.964;2022-08-19T13:28:36;19.90;;;17.50;;
13872;SDS011;7006;51.494;11.964;2022-08-19T13:31:21;17.20;;;15.40;;
13872;SDS011;7006;51.494;11.964;2022-08-19T13:34:07;17.80;;;15.83;;
13872;SDS011;7006;51.494;11.964;2022-08-19T13:36:34;22.10;;;19.00;;
13872;SDS011;7006;51.494;11.964;2022-08-19T13:39:03;22.63;;;20.23;;
13872;SDS011;7006;51.494;11.964;2022-08-19T13:41:29;22.90;;;20.50;;
13872;SDS011;7006;51.494;11.964;2022-08-19T13:43:56;20.83;;;18.63;;
13872;SDS011;7006;51.494;11.964;2022-08-19T13:46:23;20.33;;;18.33;;
13872;SDS011;7006;51.494;11.964;2022-08-19T13:48:49;22.90;;;20.37;;
13872;SDS011;7006;51.494;11.964;2022-08-19T13:51:16;21.50;;;18.80;;
13872;SDS011;7006;51.494;11.964;2022-08-19T13:53:44;22.40;;;19.27;;
13872;SDS011;7006;51.494;11.964;2022-08-19T13:56:15;20.57;;;18.50;;
13872;SDS011;7006;51.494;11.964;2022-08-19T13:58:44;21.90;;;19.60;;
13872;SDS011;7006;51.494;11.964;2022-08-19T14:01:11;21.90;;;19.43;;
13872;SDS011;7006;51.494;11.964;2022-08-19T14:03:38;23.67;;;21.20;;
13872;SDS011;7006;51.494;11.964;2022-08-19T14:06:04;25.30;;;20.13;;
13872;SDS011;7006;51.494;11.964;2022-08-19T14:08:31;25.70;;;23.10;;
13872;SDS011;7006;51.494;11.964;2022-08-19T14:10:58;24.50;;;21.93;;
13872;SDS011;7006;51.494;11.964;2022-08-19T14:13:26;27.67;;;24.37;;
13872;SDS011;7006;51.494;11.964;2022-08-19T14:15:52;28.20;;;21.50;;
13872;SDS011;7006;51.494;11.964;2022-08-19T14:18:19;24.70;;;22.10;;
13872;SDS011;7006;51.494;11.964;2022-08-19T14:20:46;23.43;;;20.47;;
13872;SDS011;7006;51.494;11.964;2022-08-19T14:23:13;25.50;;;21.50;;
13872;SDS011;7006;51.494;11.964;2022-08-19T14:25:39;23.13;;;20.70;;
13872;SDS011;7006;51.494;11.964;2022-08-19T14:28:06;23.57;;;20.10;;